DLH05K EDDF-LOWS
Flight info
| Callsign | DLH05K |
|---|---|
| Flight time | 0h 45m |
| Altitude | 29000 |
| Route | CINDY8S/18 CINDY Z74 HAREM DCT ASLEP DCT TAKUT DCT DINKU L603 OLETU T702 BADIT BADIT2R |
| Aircraft | A319/M-SDE2E3FGIJ1LORWXYZ/HB1 |
Departure
| Time | 2026-05-04 15:47 |
|---|---|
| Airport | Frankfurt Main Airport (EDDF) |
Arrival
| Time | 2026-05-04 16:33 |
|---|---|
| Airport | Salzburg Airport (LOWS) |
| Time | Latitude | Longitude | Altitude | Speed | Heading |
|---|---|---|---|---|---|
| 2026-05-04 14:54 | 50.04856 | 8.58898 | 365 ft | 0 kts | 340° |
| 2026-05-04 14:56 | 50.04853 | 8.58900 | 365 ft | 0 kts | 340° |
| 2026-05-04 15:30 | 50.04779 | 8.58942 | 369 ft | 2 kts | 340° |
| 2026-05-04 15:30 | 50.04778 | 8.58943 | 369 ft | 0 kts | 340° |
| 2026-05-04 15:32 | 50.04782 | 8.58936 | 370 ft | 3 kts | 314° |
| 2026-05-04 15:32 | 50.04746 | 8.58846 | 370 ft | 8 kts | 240° |
| 2026-05-04 15:33 | 50.04865 | 8.58697 | 363 ft | 14 kts | 340° |
| 2026-05-04 15:34 | 50.04855 | 8.58272 | 361 ft | 18 kts | 250° |
| 2026-05-04 15:34 | 50.04811 | 8.58087 | 360 ft | 18 kts | 249° |
| 2026-05-04 15:34 | 50.04691 | 8.57831 | 360 ft | 16 kts | 249° |
| 2026-05-04 15:35 | 50.04597 | 8.57436 | 361 ft | 21 kts | 250° |
| 2026-05-04 15:35 | 50.04545 | 8.57221 | 359 ft | 21 kts | 250° |
| 2026-05-04 15:35 | 50.04494 | 8.57003 | 359 ft | 22 kts | 250° |
| 2026-05-04 15:36 | 50.04389 | 8.56565 | 359 ft | 23 kts | 249° |
| 2026-05-04 15:36 | 50.04333 | 8.56332 | 358 ft | 23 kts | 249° |
| 2026-05-04 15:36 | 50.04275 | 8.56091 | 358 ft | 24 kts | 249° |
| 2026-05-04 15:37 | 50.04217 | 8.55846 | 356 ft | 25 kts | 250° |
| 2026-05-04 15:37 | 50.04156 | 8.55589 | 351 ft | 26 kts | 249° |
| 2026-05-04 15:37 | 50.04094 | 8.55330 | 358 ft | 25 kts | 250° |
| 2026-05-04 15:37 | 50.04033 | 8.55078 | 360 ft | 25 kts | 249° |
| 2026-05-04 15:38 | 50.03972 | 8.54824 | 354 ft | 26 kts | 250° |
| 2026-05-04 15:38 | 50.03909 | 8.54557 | 354 ft | 27 kts | 249° |
| 2026-05-04 15:38 | 50.03849 | 8.54345 | 346 ft | 20 kts | 235° |
| 2026-05-04 15:38 | 50.03784 | 8.54157 | 350 ft | 21 kts | 250° |
| 2026-05-04 15:39 | 50.03732 | 8.53939 | 349 ft | 22 kts | 249° |
| 2026-05-04 15:39 | 50.03678 | 8.53713 | 350 ft | 23 kts | 249° |
| 2026-05-04 15:39 | 50.03574 | 8.53293 | 336 ft | 16 kts | 249° |
| 2026-05-04 15:40 | 50.03546 | 8.53176 | 334 ft | 8 kts | 250° |
| 2026-05-04 15:40 | 50.03542 | 8.53156 | 335 ft | 0 kts | 250° |
| 2026-05-04 15:41 | 50.03537 | 8.53138 | 338 ft | 5 kts | 250° |
| 2026-05-04 15:41 | 50.03522 | 8.53074 | 338 ft | 7 kts | 249° |
| 2026-05-04 15:42 | 50.03501 | 8.52989 | 334 ft | 9 kts | 249° |
| 2026-05-04 15:42 | 50.03482 | 8.52911 | 337 ft | 6 kts | 248° |
| 2026-05-04 15:42 | 50.03476 | 8.52890 | 334 ft | 0 kts | 246° |
| 2026-05-04 15:42 | 50.03476 | 8.52889 | 334 ft | 1 kts | 246° |
| 2026-05-04 15:43 | 50.03468 | 8.52859 | 335 ft | 5 kts | 246° |
| 2026-05-04 15:43 | 50.03451 | 8.52800 | 336 ft | 7 kts | 246° |
| 2026-05-04 15:43 | 50.03433 | 8.52729 | 333 ft | 3 kts | 249° |
| 2026-05-04 15:43 | 50.03432 | 8.52725 | 334 ft | 0 kts | 249° |
| 2026-05-04 15:45 | 50.03432 | 8.52724 | 334 ft | 1 kts | 249° |
| 2026-05-04 15:45 | 50.03422 | 8.52683 | 336 ft | 7 kts | 249° |
| 2026-05-04 15:45 | 50.03393 | 8.52607 | 333 ft | 9 kts | 216° |
| 2026-05-04 15:45 | 50.03348 | 8.52594 | 336 ft | 0 kts | 179° |
| 2026-05-04 15:47 | 50.03274 | 8.52594 | 332 ft | 40 kts | 180° |
| 2026-05-04 15:47 | 50.02712 | 8.52600 | 336 ft | 118 kts | 179° |
| 2026-05-04 15:47 | 50.01691 | 8.52611 | 434 ft | 165 kts | 182° |
| 2026-05-04 15:47 | 50.00556 | 8.52623 | 1174 ft | 163 kts | 182° |
| 2026-05-04 15:48 | 49.99411 | 8.52628 | 1866 ft | 172 kts | 182° |
| 2026-05-04 15:48 | 49.98136 | 8.52632 | 2334 ft | 195 kts | 182° |
| 2026-05-04 15:48 | 49.95713 | 8.55159 | 3382 ft | 240 kts | 118° |
| 2026-05-04 15:49 | 49.94892 | 8.57470 | 3849 ft | 246 kts | 119° |
| 2026-05-04 15:49 | 49.94187 | 8.59875 | 3977 ft | 244 kts | 105° |
| 2026-05-04 15:49 | 49.93974 | 8.62623 | 4006 ft | 268 kts | 93° |
| 2026-05-04 15:49 | 49.93858 | 8.65496 | 4002 ft | 273 kts | 95° |
| 2026-05-04 15:50 | 49.93370 | 8.68346 | 4080 ft | 279 kts | 116° |
| 2026-05-04 15:50 | 49.92258 | 8.70852 | 5062 ft | 280 kts | 136° |
| 2026-05-04 15:50 | 49.90790 | 8.72735 | 6459 ft | 270 kts | 147° |
| 2026-05-04 15:50 | 49.89294 | 8.74475 | 7617 ft | 271 kts | 142° |
| 2026-05-04 15:51 | 49.88023 | 8.76671 | 8643 ft | 278 kts | 129° |
| 2026-05-04 15:51 | 49.87037 | 8.79300 | 9646 ft | 284 kts | 123° |
| 2026-05-04 15:51 | 49.86064 | 8.82018 | 10406 ft | 297 kts | 123° |
| 2026-05-04 15:51 | 49.85012 | 8.84920 | 10851 ft | 318 kts | 123° |
| 2026-05-04 15:52 | 49.83908 | 8.87956 | 11597 ft | 327 kts | 123° |
| 2026-05-04 15:52 | 49.82797 | 8.91019 | 12421 ft | 333 kts | 123° |
| 2026-05-04 15:52 | 49.81655 | 8.94172 | 13265 ft | 338 kts | 122° |
| 2026-05-04 15:52 | 49.80495 | 8.97370 | 14070 ft | 343 kts | 122° |
| 2026-05-04 15:53 | 49.79313 | 9.00616 | 14801 ft | 348 kts | 122° |
| 2026-05-04 15:53 | 49.78115 | 9.03901 | 15546 ft | 353 kts | 123° |
| 2026-05-04 15:53 | 49.76905 | 9.07233 | 16274 ft | 358 kts | 121° |
| 2026-05-04 15:53 | 49.75943 | 9.10814 | 17016 ft | 366 kts | 110° |
| 2026-05-04 15:54 | 49.75306 | 9.14654 | 17735 ft | 370 kts | 109° |
| 2026-05-04 15:54 | 49.74370 | 9.18367 | 18400 ft | 371 kts | 121° |
| 2026-05-04 15:54 | 49.72985 | 9.21725 | 19051 ft | 370 kts | 132° |
| 2026-05-04 15:54 | 49.71324 | 9.24699 | 19710 ft | 372 kts | 135° |
| 2026-05-04 15:55 | 49.69608 | 9.27720 | 20377 ft | 375 kts | 135° |
| 2026-05-04 15:55 | 49.67881 | 9.30768 | 21028 ft | 379 kts | 135° |
| 2026-05-04 15:55 | 49.66138 | 9.33845 | 21677 ft | 382 kts | 135° |
| 2026-05-04 15:55 | 49.64381 | 9.36946 | 22317 ft | 386 kts | 135° |
| 2026-05-04 15:56 | 49.62685 | 9.40191 | 22934 ft | 392 kts | 128° |
| 2026-05-04 15:56 | 49.61353 | 9.43907 | 23543 ft | 401 kts | 117° |
| 2026-05-04 15:56 | 49.60415 | 9.47999 | 24050 ft | 407 kts | 111° |
| 2026-05-04 15:56 | 49.59534 | 9.52166 | 24559 ft | 411 kts | 111° |
| 2026-05-04 15:57 | 49.58651 | 9.56310 | 25048 ft | 414 kts | 112° |
| 2026-05-04 15:57 | 49.57743 | 9.60541 | 25543 ft | 417 kts | 112° |
| 2026-05-04 15:57 | 49.56823 | 9.64797 | 26026 ft | 420 kts | 112° |
| 2026-05-04 15:57 | 49.55892 | 9.69084 | 26515 ft | 423 kts | 112° |
| 2026-05-04 15:58 | 49.54957 | 9.73388 | 26989 ft | 425 kts | 112° |
| 2026-05-04 15:58 | 49.54014 | 9.77721 | 27488 ft | 428 kts | 112° |
| 2026-05-04 15:58 | 49.52915 | 9.81970 | 27948 ft | 427 kts | 121° |
| 2026-05-04 15:58 | 49.51401 | 9.85875 | 28412 ft | 425 kts | 130° |
| 2026-05-04 15:59 | 49.49571 | 9.89430 | 28841 ft | 425 kts | 133° |
| 2026-05-04 15:59 | 49.47708 | 9.92949 | 28980 ft | 425 kts | 133° |
| 2026-05-04 15:59 | 49.45901 | 9.96383 | 29004 ft | 408 kts | 133° |
| 2026-05-04 15:59 | 49.44127 | 9.99764 | 29002 ft | 395 kts | 133° |
| 2026-05-04 16:00 | 49.40735 | 10.06202 | 29002 ft | 388 kts | 134° |
| 2026-05-04 16:00 | 49.37330 | 10.12608 | 29003 ft | 387 kts | 134° |
| 2026-05-04 16:01 | 49.33923 | 10.19005 | 29001 ft | 387 kts | 134° |
| 2026-05-04 16:01 | 49.30519 | 10.25396 | 29000 ft | 387 kts | 134° |
| 2026-05-04 16:02 | 49.27111 | 10.31773 | 28956 ft | 387 kts | 133° |
| 2026-05-04 16:03 | 49.21834 | 10.40966 | 28986 ft | 383 kts | 140° |
| 2026-05-04 16:03 | 49.18008 | 10.46642 | 28989 ft | 383 kts | 140° |
| 2026-05-04 16:04 | 49.14180 | 10.52317 | 28988 ft | 383 kts | 140° |
| 2026-05-04 16:04 | 49.08445 | 10.60823 | 28988 ft | 383 kts | 140° |
| 2026-05-04 16:05 | 49.04646 | 10.66444 | 28963 ft | 383 kts | 140° |
| 2026-05-04 16:06 | 48.98879 | 10.74927 | 28963 ft | 385 kts | 140° |
| 2026-05-04 16:06 | 48.93676 | 10.82558 | 28395 ft | 403 kts | 140° |
| 2026-05-04 16:07 | 48.90966 | 10.86525 | 27282 ft | 404 kts | 140° |
| 2026-05-04 16:07 | 48.84996 | 10.95267 | 25407 ft | 394 kts | 140° |
| 2026-05-04 16:08 | 48.83025 | 10.98139 | 24848 ft | 391 kts | 140° |
| 2026-05-04 16:08 | 48.77320 | 11.06859 | 23446 ft | 386 kts | 127° |
| 2026-05-04 16:09 | 48.74752 | 11.13887 | 22642 ft | 379 kts | 121° |
| 2026-05-04 16:09 | 48.72281 | 11.20909 | 21694 ft | 375 kts | 121° |
| 2026-05-04 16:10 | 48.69861 | 11.27795 | 20784 ft | 370 kts | 121° |
| 2026-05-04 16:11 | 48.66283 | 11.37885 | 19921 ft | 349 kts | 122° |
| 2026-05-04 16:11 | 48.65137 | 11.41104 | 19946 ft | 345 kts | 122° |
| 2026-05-04 16:12 | 48.61727 | 11.50671 | 19949 ft | 344 kts | 122° |
| 2026-05-04 16:12 | 48.58339 | 11.60176 | 19949 ft | 344 kts | 122° |
| 2026-05-04 16:13 | 48.56062 | 11.66527 | 19948 ft | 344 kts | 122° |
| 2026-05-04 16:13 | 48.53781 | 11.72873 | 19950 ft | 344 kts | 122° |
| 2026-05-04 16:14 | 48.51500 | 11.79206 | 19643 ft | 341 kts | 122° |
| 2026-05-04 16:14 | 48.49253 | 11.85435 | 18930 ft | 335 kts | 122° |
| 2026-05-04 16:15 | 48.45950 | 11.94545 | 17831 ft | 328 kts | 122° |
| 2026-05-04 16:16 | 48.43774 | 12.00527 | 17045 ft | 323 kts | 122° |
| 2026-05-04 16:16 | 48.40547 | 12.09398 | 15704 ft | 324 kts | 122° |
| 2026-05-04 16:17 | 48.38363 | 12.15372 | 14699 ft | 327 kts | 122° |
| 2026-05-04 16:18 | 48.35096 | 12.24294 | 13625 ft | 319 kts | 122° |
| 2026-05-04 16:18 | 48.34049 | 12.27154 | 13286 ft | 315 kts | 122° |
| 2026-05-04 16:19 | 48.30922 | 12.35659 | 12295 ft | 304 kts | 122° |
| 2026-05-04 16:19 | 48.28892 | 12.41158 | 11686 ft | 299 kts | 122° |
| 2026-05-04 16:20 | 48.25880 | 12.49269 | 10783 ft | 295 kts | 123° |
| 2026-05-04 16:20 | 48.23913 | 12.54582 | 10212 ft | 292 kts | 122° |
| 2026-05-04 16:21 | 48.21580 | 12.63003 | 9305 ft | 291 kts | 114° |
| 2026-05-04 16:22 | 48.20164 | 12.68650 | 8680 ft | 288 kts | 113° |
| 2026-05-04 16:22 | 48.18047 | 12.76998 | 8013 ft | 285 kts | 112° |
| 2026-05-04 16:23 | 48.14569 | 12.83741 | 7567 ft | 277 kts | 153° |
| 2026-05-04 16:24 | 48.07154 | 12.86523 | 6980 ft | 275 kts | 168° |
| 2026-05-04 16:25 | 48.03425 | 12.87694 | 6683 ft | 273 kts | 168° |
| 2026-05-04 16:26 | 47.98514 | 12.95073 | 6111 ft | 274 kts | 98° |
| 2026-05-04 16:26 | 47.95680 | 13.01788 | 5685 ft | 252 kts | 155° |
| 2026-05-04 16:27 | 47.92480 | 13.02960 | 5545 ft | 226 kts | 167° |
| 2026-05-04 16:28 | 47.87955 | 13.04353 | 5258 ft | 211 kts | 167° |
| 2026-05-04 16:28 | 47.83788 | 13.05622 | 4393 ft | 197 kts | 167° |
| 2026-05-04 16:29 | 47.78934 | 13.07104 | 3396 ft | 153 kts | 166° |
| 2026-05-04 16:30 | 47.76057 | 13.07257 | 2775 ft | 142 kts | 208° |
| 2026-05-04 16:31 | 47.75141 | 13.04832 | 2387 ft | 140 kts | 274° |
| 2026-05-04 16:31 | 47.76841 | 13.01964 | 1818 ft | 127 kts | 339° |
| 2026-05-04 16:32 | 47.79177 | 13.00494 | 1414 ft | 88 kts | 337° |
| 2026-05-04 16:33 | 47.79919 | 13.00026 | 1415 ft | 43 kts | 337° |
| 2026-05-04 16:33 | 47.80244 | 12.99797 | 1418 ft | 13 kts | 313° |
| 2026-05-04 16:34 | 47.80201 | 12.99588 | 1415 ft | 15 kts | 179° |
| 2026-05-04 16:34 | 47.80103 | 12.99642 | 1416 ft | 16 kts | 156° |
| 2026-05-04 16:35 | 47.79754 | 12.99862 | 1415 ft | 19 kts | 157° |
| 2026-05-04 16:35 | 47.79397 | 13.00085 | 1416 ft | 11 kts | 168° |
| 2026-05-04 16:36 | 47.79344 | 13.00023 | 1415 ft | 11 kts | 247° |
| 2026-05-04 16:36 | 47.79244 | 12.99942 | 1415 ft | 4 kts | 237° |
| 2026-05-04 16:37 | 47.79256 | 12.99842 | 1418 ft | 2 kts | 282° |
| 2026-05-04 16:37 | 47.79258 | 12.99822 | 1416 ft | 2 kts | 282° |
| 2026-05-04 16:37 | 47.79259 | 12.99816 | 1415 ft | 0 kts | 282° |